createdAt,value
2022-07-29T00:02:47.610Z,22.70
2022-07-29T00:05:49.598Z,22.71
2022-07-29T00:08:51.452Z,22.63
2022-07-29T00:15:09.866Z,22.46
2022-07-29T00:18:11.903Z,22.34
2022-07-29T00:21:13.957Z,22.20
2022-07-29T00:24:16.236Z,22.23
2022-07-29T00:27:21.038Z,22.12
2022-07-29T00:30:24.158Z,22.09
2022-07-29T00:33:26.016Z,22.19
2022-07-29T00:36:27.995Z,22.10
2022-07-29T00:39:30.398Z,22.03
2022-07-29T00:42:32.384Z,21.96
2022-07-29T00:45:34.555Z,22.11
2022-07-29T00:48:36.665Z,22.05
2022-07-29T00:51:40.230Z,22.10
2022-07-29T00:54:44.450Z,21.96
2022-07-29T00:57:47.245Z,22.08
2022-07-29T01:00:50.100Z,22.04
2022-07-29T01:03:51.985Z,22.00
2022-07-29T01:06:55.511Z,21.92
2022-07-29T01:10:00.099Z,21.81
2022-07-29T01:13:03.229Z,21.88
2022-07-29T01:16:19.274Z,22.01
2022-07-29T01:19:40.274Z,21.74
2022-07-29T01:23:01.033Z,21.82
2022-07-29T01:26:31.317Z,21.76
2022-07-29T01:29:42.425Z,21.82
2022-07-29T01:32:51.428Z,21.87
2022-07-29T01:35:53.432Z,21.71
2022-07-29T01:39:10.029Z,21.69
2022-07-29T01:42:22.095Z,21.39
2022-07-29T01:45:46.316Z,21.49
2022-07-29T01:49:02.696Z,21.48
2022-07-29T01:52:14.350Z,21.22
2022-07-29T01:55:26.200Z,21.10
2022-07-29T01:58:30.491Z,20.92
2022-07-29T02:01:34.190Z,21.09
2022-07-29T02:04:37.728Z,21.28
2022-07-29T02:07:43.367Z,20.89
2022-07-29T02:10:46.785Z,20.60
2022-07-29T02:13:51.548Z,20.09
2022-07-29T02:17:04.326Z,19.98
2022-07-29T02:20:07.454Z,19.95
2022-07-29T02:23:12.790Z,19.93
2022-07-29T02:26:15.559Z,19.87
2022-07-29T02:29:19.892Z,19.86
2022-07-29T02:32:23.840Z,19.64
2022-07-29T02:35:26.952Z,19.60
2022-07-29T02:38:48.497Z,19.68
2022-07-29T02:42:08.303Z,19.70
2022-07-29T02:45:10.968Z,19.44
2022-07-29T02:48:17.567Z,19.54
2022-07-29T02:51:41.435Z,19.40
2022-07-29T02:55:17.989Z,19.52
2022-07-29T02:58:30.363Z,19.63
2022-07-29T03:01:36.605Z,19.56
2022-07-29T03:04:42.835Z,19.54
2022-07-29T03:07:47.640Z,19.40
2022-07-29T03:10:53.195Z,19.64
2022-07-29T03:13:55.911Z,19.39
2022-07-29T03:16:58.789Z,19.16
2022-07-29T03:20:01.123Z,19.35
2022-07-29T03:23:03.269Z,19.15
2022-07-29T03:26:05.186Z,19.06
2022-07-29T03:29:07.115Z,19.10
2022-07-29T03:32:09.500Z,19.71
2022-07-29T03:35:12.537Z,19.95
2022-07-29T03:38:14.439Z,20.11
2022-07-29T03:41:17.942Z,20.25
2022-07-29T03:44:27.201Z,20.33
2022-07-29T03:47:36.834Z,20.33
2022-07-29T03:50:53.386Z,20.42
2022-07-29T03:53:55.312Z,20.03
2022-07-29T03:57:01.111Z,19.95
2022-07-29T04:00:05.941Z,20.35
2022-07-29T04:03:11.666Z,20.15
2022-07-29T04:06:14.076Z,20.07
2022-07-29T04:09:16.129Z,20.04
2022-07-29T04:12:17.945Z,20.21
2022-07-29T04:15:20.200Z,20.02
2022-07-29T04:18:22.104Z,19.68
2022-07-29T04:21:24.132Z,19.77
2022-07-29T04:24:26.259Z,19.66
2022-07-29T04:27:28.340Z,19.92
2022-07-29T04:30:31.852Z,20.34
2022-07-29T04:33:33.725Z,20.59
2022-07-29T04:36:35.862Z,20.69
2022-07-29T04:39:37.731Z,20.84
2022-07-29T04:42:46.793Z,20.84
2022-07-29T04:45:49.614Z,20.59
2022-07-29T04:48:51.547Z,20.48
2022-07-29T04:51:54.593Z,20.74
2022-07-29T04:54:56.313Z,20.91
2022-07-29T04:57:58.044Z,20.91
2022-07-29T05:01:00.618Z,21.03
2022-07-29T05:04:02.588Z,21.03
2022-07-29T05:07:05.292Z,21.33
2022-07-29T05:10:07.367Z,21.38
2022-07-29T05:13:09.232Z,21.47
2022-07-29T05:16:11.209Z,21.73
2022-07-29T05:19:14.693Z,21.46
2022-07-29T05:22:16.563Z,21.77
2022-07-29T05:25:44.396Z,21.81
2022-07-29T05:28:46.815Z,21.92
2022-07-29T05:31:48.632Z,22.16
2022-07-29T05:34:51.815Z,22.33
2022-07-29T05:37:53.988Z,22.48
2022-07-29T05:40:58.573Z,22.63
2022-07-29T05:44:00.551Z,22.35
2022-07-29T05:47:02.463Z,22.80
2022-07-29T05:50:05.613Z,22.73
2022-07-29T05:53:19.844Z,22.71
2022-07-29T05:56:22.584Z,22.87
2022-07-29T05:59:30.432Z,23.19
2022-07-29T06:02:32.528Z,23.40
2022-07-29T06:05:34.436Z,23.64
2022-07-29T06:08:37.556Z,23.79
2022-07-29T06:11:39.220Z,23.83
2022-07-29T06:14:41.189Z,24.04
2022-07-29T06:18:00.385Z,24.17
2022-07-29T06:21:09.724Z,24.25
2022-07-29T06:24:15.632Z,24.61
2022-07-29T06:27:17.598Z,24.57
2022-07-29T06:30:19.571Z,24.79
2022-07-29T06:33:21.566Z,24.85
2022-07-29T06:36:23.557Z,24.99
2022-07-29T06:39:26.905Z,24.86
2022-07-29T06:42:28.569Z,25.07
2022-07-29T06:45:30.444Z,25.50
2022-07-29T06:48:33.329Z,25.58
2022-07-29T06:51:35.255Z,25.60
2022-07-29T06:54:36.918Z,25.92
2022-07-29T06:57:38.838Z,25.83
2022-07-29T07:00:43.866Z,25.90
2022-07-29T07:03:46.709Z,25.91
2022-07-29T07:06:48.616Z,25.93
2022-07-29T07:09:50.518Z,26.04
2022-07-29T07:12:52.660Z,26.17
2022-07-29T07:15:54.674Z,26.46
2022-07-29T07:18:56.478Z,26.73
2022-07-29T07:21:58.280Z,26.78
2022-07-29T07:25:00.115Z,26.88
2022-07-29T07:28:05.197Z,27.09
2022-07-29T07:31:07.174Z,27.01
2022-07-29T07:34:09.226Z,27.21
2022-07-29T07:37:11.179Z,27.28
2022-07-29T07:40:13.915Z,27.23
2022-07-29T07:43:20.876Z,27.31
2022-07-29T07:46:23.151Z,27.47
2022-07-29T07:49:25.242Z,27.50
2022-07-29T07:52:27.287Z,27.49
2022-07-29T07:55:30.708Z,27.81
2022-07-29T07:58:37.313Z,28.09
2022-07-29T08:01:48.112Z,28.36
2022-07-29T08:04:57.671Z,28.76
2022-07-29T08:07:59.696Z,29.09
2022-07-29T08:11:06.931Z,29.59
2022-07-29T08:14:11.231Z,30.02
2022-07-29T08:17:15.806Z,30.24
2022-07-29T08:20:17.760Z,30.71
2022-07-29T08:23:20.197Z,31.40
2022-07-29T08:26:23.652Z,32.23
2022-07-29T08:29:25.554Z,32.69
2022-07-29T08:32:51.231Z,33.20
2022-07-29T08:35:51.584Z,33.12
2022-07-29T08:38:53.763Z,34.00
2022-07-29T08:41:57.285Z,34.26
2022-07-29T08:45:00.013Z,34.70
2022-07-29T08:48:01.987Z,35.39
2022-07-29T08:51:04.677Z,36.16
2022-07-29T08:54:09.226Z,35.44
2022-07-29T08:57:15.339Z,36.22
2022-07-29T09:00:19.241Z,35.44
2022-07-29T09:03:24.380Z,36.68
2022-07-29T09:06:32.423Z,37.28
2022-07-29T09:09:35.485Z,37.84
2022-07-29T09:12:38.200Z,38.05
2022-07-29T09:15:40.377Z,36.50
2022-07-29T09:18:44.549Z,36.05
2022-07-29T09:21:58.867Z,37.16
2022-07-29T09:25:00.899Z,38.22
2022-07-29T09:28:14.297Z,39.36
2022-07-29T09:31:16.256Z,39.51
2022-07-29T09:34:25.664Z,38.66
2022-07-29T09:37:29.622Z,41.14
2022-07-29T09:40:32.460Z,41.18
2022-07-29T09:43:35.440Z,41.13
2022-07-29T09:46:37.524Z,42.39
2022-07-29T09:50:00.585Z,42.64
2022-07-29T09:53:02.628Z,42.99
2022-07-29T09:56:07.557Z,41.80
2022-07-29T09:59:12.334Z,43.77
2022-07-29T10:02:20.298Z,43.68
2022-07-29T10:05:36.299Z,44.44
2022-07-29T10:08:42.794Z,43.70
2022-07-29T10:12:07.221Z,45.02
2022-07-29T10:15:09.301Z,46.30
2022-07-29T10:18:12.953Z,44.64
2022-07-29T10:21:35.022Z,45.38
2022-07-29T10:24:38.496Z,44.54
2022-07-29T10:27:40.953Z,44.19
2022-07-29T10:30:44.591Z,43.23
2022-07-29T10:34:06.037Z,43.23
2022-07-29T10:37:23.949Z,43.64
2022-07-29T10:41:10.606Z,41.85
2022-07-29T10:44:23.143Z,39.48
2022-07-29T10:47:27.182Z,38.75
2022-07-29T10:50:29.076Z,37.65
2022-07-29T10:53:48.926Z,36.90
2022-07-29T10:56:50.936Z,37.33
2022-07-29T11:00:09.896Z,36.73
2022-07-29T11:03:50.826Z,36.41
2022-07-29T11:07:06.962Z,35.63
2022-07-29T11:10:15.318Z,35.13
2022-07-29T11:13:49.018Z,35.82
2022-07-29T11:17:06.713Z,35.68
2022-07-29T11:20:41.414Z,34.90
2022-07-29T11:23:45.311Z,35.19
2022-07-29T11:27:40.749Z,34.77
2022-07-29T11:30:50.141Z,34.72
2022-07-29T11:33:55.752Z,34.91
2022-07-29T11:37:08.177Z,34.93
2022-07-29T11:40:13.490Z,35.20
2022-07-29T11:43:53.845Z,34.09
2022-07-29T11:46:55.774Z,34.47
2022-07-29T11:49:59.946Z,34.96
2022-07-29T11:53:08.791Z,35.04
2022-07-29T11:59:42.684Z,34.92
2022-07-29T12:02:48.529Z,35.07
2022-07-29T12:05:51.964Z,35.40
2022-07-29T12:08:53.947Z,35.53
2022-07-29T12:12:04.919Z,35.75
2022-07-29T12:15:25.084Z,35.58
2022-07-29T12:18:57.653Z,35.64
2022-07-29T12:22:02.217Z,35.68
2022-07-29T12:25:31.861Z,36.08
2022-07-29T12:28:28.586Z,35.90
2022-07-29T12:31:44.078Z,36.64
2022-07-29T12:34:54.500Z,36.93
2022-07-29T12:37:56.488Z,36.75
2022-07-29T12:40:58.755Z,36.88
2022-07-29T12:44:00.578Z,36.88
2022-07-29T12:47:05.931Z,36.49
2022-07-29T12:50:15.350Z,37.13
2022-07-29T12:53:17.755Z,37.70
2022-07-29T12:56:41.699Z,38.97
2022-07-29T12:59:42.645Z,38.70
2022-07-29T13:02:55.124Z,39.24
2022-07-29T13:05:59.224Z,40.19
2022-07-29T13:09:23.844Z,40.42
2022-07-29T13:12:25.657Z,40.63
2022-07-29T13:15:27.699Z,42.14
2022-07-29T13:18:37.055Z,44.35
2022-07-29T13:21:40.340Z,45.83
2022-07-29T13:24:55.751Z,47.67
2022-07-29T13:27:57.860Z,48.78
2022-07-29T13:30:59.823Z,48.62
2022-07-29T13:34:01.841Z,49.21
2022-07-29T13:37:03.761Z,47.46
2022-07-29T13:40:08.011Z,47.64
2022-07-29T13:43:13.295Z,48.39
2022-07-29T13:46:15.174Z,47.25
2022-07-29T13:49:17.225Z,48.36
2022-07-29T13:52:19.128Z,49.31
2022-07-29T13:55:20.897Z,49.47
2022-07-29T13:58:22.984Z,48.01
2022-07-29T14:01:25.652Z,49.91
2022-07-29T14:04:27.606Z,50.74
2022-07-29T14:07:29.384Z,50.51
2022-07-29T14:10:31.230Z,50.51
2022-07-29T14:13:33.212Z,49.13
2022-07-29T14:16:38.093Z,49.63
2022-07-29T14:19:44.054Z,49.69
2022-07-29T14:22:45.942Z,48.28
2022-07-29T14:25:49.543Z,49.50
2022-07-29T14:28:52.476Z,49.61
2022-07-29T14:31:54.383Z,50.82
2022-07-29T14:34:56.084Z,48.20
2022-07-29T14:37:58.446Z,48.60
2022-07-29T14:41:00.186Z,47.57
2022-07-29T14:44:02.694Z,44.54
2022-07-29T14:47:07.684Z,43.04
2022-07-29T14:50:10.848Z,40.92
2022-07-29T14:53:14.147Z,38.69
2022-07-29T14:56:35.977Z,38.22
2022-07-29T14:59:37.858Z,37.57
2022-07-29T15:03:00.517Z,36.89
2022-07-29T15:06:01.581Z,35.58
2022-07-29T15:09:03.670Z,34.55
2022-07-29T15:12:05.992Z,34.80
2022-07-29T15:15:08.487Z,34.04
2022-07-29T15:18:10.438Z,34.93
2022-07-29T15:21:12.432Z,34.81
2022-07-29T15:24:14.355Z,34.67
2022-07-29T15:27:16.146Z,35.00
2022-07-29T15:30:33.517Z,34.77
2022-07-29T15:33:37.232Z,35.74
2022-07-29T15:36:54.581Z,35.36
2022-07-29T15:40:00.019Z,35.84
2022-07-29T15:43:06.772Z,35.63
2022-07-29T15:46:27.627Z,35.36
2022-07-29T15:49:46.639Z,35.04
2022-07-29T15:52:50.766Z,35.07
2022-07-29T15:55:52.850Z,34.84
2022-07-29T15:58:54.814Z,34.56
2022-07-29T16:01:57.072Z,34.61
2022-07-29T16:04:59.983Z,34.34
2022-07-29T16:08:01.774Z,34.26
2022-07-29T16:11:03.636Z,34.22
2022-07-29T16:14:06.050Z,34.15
2022-07-29T16:17:14.465Z,33.88
2022-07-29T16:20:17.284Z,33.72
2022-07-29T16:23:18.973Z,33.70
2022-07-29T16:26:20.994Z,33.52
2022-07-29T16:29:22.858Z,33.54
2022-07-29T16:32:24.860Z,33.54
2022-07-29T16:35:39.218Z,33.33
2022-07-29T16:38:46.989Z,33.22
2022-07-29T16:41:50.589Z,33.24
2022-07-29T16:44:52.506Z,33.01
2022-07-29T16:48:00.225Z,32.94
2022-07-29T16:51:04.975Z,32.97
2022-07-29T16:54:08.954Z,32.89
2022-07-29T16:57:11.876Z,32.86
2022-07-29T17:00:15.514Z,32.83
2022-07-29T17:03:17.172Z,32.62
2022-07-29T17:06:19.059Z,32.72
2022-07-29T17:09:21.192Z,32.64
2022-07-29T17:12:23.146Z,32.28
2022-07-29T17:15:24.859Z,31.63
2022-07-29T17:18:26.804Z,31.84
2022-07-29T17:21:28.652Z,31.52
2022-07-29T17:24:30.824Z,30.97
2022-07-29T17:27:33.141Z,31.19
2022-07-29T17:30:35.088Z,30.96
2022-07-29T17:33:37.088Z,30.84
2022-07-29T17:36:39.041Z,30.90
2022-07-29T17:39:42.773Z,31.05
2022-07-29T17:42:44.643Z,30.95
2022-07-29T17:45:49.949Z,31.06
2022-07-29T17:48:53.508Z,31.05
2022-07-29T17:51:59.038Z,30.96
2022-07-29T17:55:02.727Z,30.77
2022-07-29T17:58:09.031Z,30.74
2022-07-29T18:01:10.977Z,30.61
2022-07-29T18:04:13.116Z,30.57
2022-07-29T18:07:15.007Z,30.46
2022-07-29T18:10:16.901Z,30.28
2022-07-29T18:13:19.319Z,29.79
2022-07-29T18:16:21.153Z,29.64
2022-07-29T18:19:25.138Z,29.51
2022-07-29T18:22:27.091Z,29.27
2022-07-29T18:25:29.674Z,29.22
2022-07-29T18:28:32.820Z,29.24
2022-07-29T18:31:34.730Z,29.20
2022-07-29T18:34:36.571Z,29.25
2022-07-29T18:38:02.069Z,29.34
2022-07-29T18:41:00.714Z,29.39
2022-07-29T18:44:02.670Z,29.29
2022-07-29T18:47:06.645Z,29.14
2022-07-29T18:50:13.583Z,29.10
2022-07-29T18:53:15.554Z,29.06
2022-07-29T18:56:17.479Z,29.08
2022-07-29T18:59:21.753Z,29.02
2022-07-29T19:02:23.866Z,28.93
2022-07-29T19:05:28.918Z,28.79
2022-07-29T19:08:31.778Z,28.61
2022-07-29T19:11:33.671Z,28.40
2022-07-29T19:14:35.784Z,28.17
2022-07-29T19:17:38.874Z,28.09
2022-07-29T19:20:42.051Z,27.92
2022-07-29T19:24:05.821Z,27.80
2022-07-29T19:27:06.006Z,27.70
2022-07-29T19:30:09.559Z,27.69
2022-07-29T19:33:12.966Z,27.65
2022-07-29T19:36:15.046Z,27.60
2022-07-29T19:39:17.986Z,27.59
2022-07-29T19:42:35.270Z,27.53
2022-07-29T19:45:37.287Z,27.44
2022-07-29T19:48:39.260Z,27.32
2022-07-29T19:51:41.764Z,27.27
2022-07-29T19:54:43.466Z,27.24
2022-07-29T19:57:49.132Z,27.16
2022-07-29T20:00:51.223Z,27.04
2022-07-29T20:03:54.160Z,27.19
2022-07-29T20:07:01.713Z,27.08
2022-07-29T20:10:05.341Z,26.98
2022-07-29T20:13:07.356Z,27.00
2022-07-29T20:16:09.431Z,26.93
2022-07-29T20:19:12.128Z,26.90
2022-07-29T20:22:14.681Z,26.87
2022-07-29T20:25:23.973Z,26.75
2022-07-29T20:28:25.951Z,26.80
2022-07-29T20:31:28.081Z,26.85
2022-07-29T20:34:30.080Z,26.72
2022-07-29T20:37:32.814Z,26.72
2022-07-29T20:40:55.799Z,26.66
2022-07-29T20:43:57.463Z,26.67
2022-07-29T20:46:59.576Z,26.54
2022-07-29T20:50:01.392Z,26.45
2022-07-29T20:53:04.199Z,26.40
2022-07-29T20:56:10.152Z,26.41
2022-07-29T21:02:28.035Z,26.44
2022-07-29T21:05:30.240Z,26.34
2022-07-29T21:08:32.402Z,26.23
2022-07-29T21:11:44.038Z,25.62
2022-07-29T21:14:48.214Z,25.61
2022-07-29T21:17:52.273Z,25.76
2022-07-29T21:20:55.346Z,25.98
2022-07-29T21:23:57.392Z,25.96
2022-07-29T21:27:21.035Z,25.25
2022-07-29T21:30:23.369Z,25.15
2022-07-29T21:33:28.197Z,25.23
2022-07-29T21:39:51.890Z,25.22
2022-07-29T21:42:54.774Z,24.49
2022-07-29T21:45:57.912Z,24.63
2022-07-29T21:48:59.849Z,24.56
2022-07-29T21:52:01.796Z,24.38
2022-07-29T21:55:03.724Z,24.76
2022-07-29T21:58:06.372Z,25.02
2022-07-29T22:01:08.421Z,24.86
2022-07-29T22:04:10.311Z,24.72
2022-07-29T22:07:12.379Z,24.66
2022-07-29T22:10:15.977Z,24.49
2022-07-29T22:13:17.675Z,24.48
2022-07-29T22:16:20.674Z,24.37
2022-07-29T22:19:22.403Z,24.48
2022-07-29T22:22:29.267Z,24.35
2022-07-29T22:25:31.357Z,23.92
2022-07-29T22:28:33.455Z,23.49
2022-07-29T22:31:35.451Z,23.64
2022-07-29T22:34:37.997Z,23.55
2022-07-29T22:37:44.080Z,23.56
2022-07-29T22:40:47.002Z,23.49
2022-07-29T22:43:51.455Z,23.92
2022-07-29T22:47:00.677Z,24.02
2022-07-29T22:50:02.800Z,23.74
2022-07-29T22:53:04.675Z,23.93
2022-07-29T22:56:06.604Z,24.08
2022-07-29T22:59:08.614Z,23.96
2022-07-29T23:02:10.565Z,24.10
2022-07-29T23:05:12.621Z,24.43
2022-07-29T23:08:14.660Z,24.48
2022-07-29T23:11:16.951Z,24.50
2022-07-29T23:14:18.999Z,24.62
2022-07-29T23:17:21.011Z,24.74
2022-07-29T23:20:22.915Z,24.91
2022-07-29T23:23:24.863Z,24.84
2022-07-29T23:26:30.313Z,24.80
2022-07-29T23:29:36.648Z,24.82
2022-07-29T23:32:39.179Z,24.70
2022-07-29T23:35:41.115Z,24.55
2022-07-29T23:38:42.891Z,24.62
2022-07-29T23:41:44.819Z,24.52
2022-07-29T23:44:46.626Z,24.30
2022-07-29T23:47:48.640Z,24.31
2022-07-29T23:50:50.592Z,24.33
2022-07-29T23:53:54.411Z,24.18
2022-07-29T23:56:57.917Z,24.30
